Time;durP1;ratioP1;P1;durP2;ratioP2;P2;SDS_P1;SDS_P2;PMS_P1;PMS_P2;Temp;Humidity;BMP_temperature;BMP_pressure;BME280_temperature;BME280_humidity;BME280_pressure;Samples;Min_cycle;Max_cycle;Signal;HPM_P1;HPM_P2
2023/09/26 00:02:19;;;;;;;5.55;3.08;;;13.20;99.90;;;;;;5038954;28;20052;-64
2023/09/26 00:04:47;;;;;;;4.88;3.15;;;13.20;99.90;;;;;;5038594;28;20018;-64
2023/09/26 00:07:12;;;;;;;5.47;3.92;;;13.20;99.90;;;;;;5039311;28;20034;-64
2023/09/26 00:09:38;;;;;;;6.35;3.00;;;13.20;99.90;;;;;;5039304;28;20021;-64
2023/09/26 00:12:05;;;;;;;4.50;2.80;;;13.20;99.90;;;;;;5038337;28;20037;-64
2023/09/26 00:14:30;;;;;;;7.10;3.03;;;13.10;99.90;;;;;;5039462;28;20071;-64
2023/09/26 00:16:56;;;;;;;4.30;2.95;;;13.00;99.90;;;;;;5039105;28;20028;-64
2023/09/26 00:19:21;;;;;;;10.95;3.35;;;13.00;99.90;;;;;;5038901;28;20032;-64
2023/09/26 00:21:47;;;;;;;4.25;2.90;;;12.90;99.90;;;;;;5039346;28;20032;-64
2023/09/26 00:24:13;;;;;;;3.50;2.50;;;12.90;99.90;;;;;;5038399;28;20029;-64
2023/09/26 00:26:39;;;;;;;4.10;2.55;;;12.80;99.90;;;;;;5039265;28;20040;-64
2023/09/26 00:29:05;;;;;;;5.65;3.10;;;12.80;99.90;;;;;;5038647;28;20021;-64
2023/09/26 00:31:30;;;;;;;4.20;2.67;;;12.70;99.90;;;;;;5039362;28;20022;-64
2023/09/26 00:33:56;;;;;;;5.93;2.67;;;12.50;99.90;;;;;;5038232;28;20033;-64
2023/09/26 00:36:22;;;;;;;7.70;3.42;;;12.50;99.90;;;;;;5038617;28;20025;-64
2023/09/26 00:38:47;;;;;;;4.82;2.78;;;12.50;99.90;;;;;;5038485;28;20026;-64
2023/09/26 00:41:13;;;;;;;3.60;2.50;;;12.40;99.90;;;;;;5038176;28;20025;-64
2023/09/26 00:43:38;;;;;;;7.80;2.85;;;12.50;99.90;;;;;;5038042;28;20021;-64
2023/09/26 00:46:05;;;;;;;9.30;3.03;;;12.50;99.90;;;;;;5038652;28;20057;-64
2023/09/26 00:48:32;;;;;;;5.15;2.92;;;12.40;99.90;;;;;;5038760;28;20029;-64
2023/09/26 00:50:58;;;;;;;5.55;3.42;;;12.40;99.90;;;;;;5038604;28;20033;-64
2023/09/26 00:53:25;;;;;;;10.07;2.88;;;12.40;99.90;;;;;;5037950;28;20029;-64
2023/09/26 00:55:54;;;;;;;4.97;2.92;;;12.30;99.90;;;;;;5037904;28;20029;-64
2023/09/26 00:58:22;;;;;;;4.25;2.75;;;12.30;99.90;;;;;;5038378;28;20048;-64
2023/09/26 01:00:51;;;;;;;6.80;2.53;;;12.30;99.90;;;;;;5037936;28;20017;-64
2023/09/26 01:03:16;;;;;;;6.68;3.25;;;12.20;99.90;;;;;;5038104;28;20022;-64
2023/09/26 01:05:42;;;;;;;4.75;2.85;;;12.20;99.90;;;;;;5037792;28;20044;-64
2023/09/26 01:08:08;;;;;;;4.75;2.38;;;12.10;99.90;;;;;;5037572;28;20030;-64
2023/09/26 01:10:36;;;;;;;5.63;3.03;;;12.10;99.90;;;;;;5037818;28;20034;-64
2023/09/26 01:13:02;;;;;;;4.05;2.70;;;12.10;99.90;;;;;;5037707;28;20034;-64
2023/09/26 01:15:37;;;;;;;5.68;3.15;;;12.10;99.90;;;;;;5037742;28;20033;-64
2023/09/26 01:18:11;;;;;;;3.42;2.60;;;12.00;99.90;;;;;;5037169;28;20068;-64
2023/09/26 01:20:46;;;;;;;7.28;3.22;;;12.00;99.90;;;;;;5037706;28;20060;-64
2023/09/26 01:23:13;;;;;;;7.32;2.47;;;12.00;99.90;;;;;;5037333;28;20028;-64
2023/09/26 01:25:43;;;;;;;5.15;3.00;;;12.00;99.90;;;;;;5037268;28;20026;-64
2023/09/26 01:28:10;;;;;;;4.28;2.65;;;12.00;99.90;;;;;;5037285;28;20036;-64
2023/09/26 01:30:40;;;;;;;4.95;2.80;;;11.90;99.90;;;;;;5037133;28;20029;-63
2023/09/26 01:33:16;;;;;;;5.50;2.75;;;11.90;99.90;;;;;;5037957;28;20032;-64
2023/09/26 01:35:43;;;;;;;5.70;3.15;;;11.80;99.90;;;;;;5037436;28;20025;-64
2023/09/26 01:38:09;;;;;;;5.72;2.65;;;11.80;99.90;;;;;;5037775;28;20030;-64
2023/09/26 01:40:34;;;;;;;5.80;2.90;;;11.80;99.90;;;;;;5036907;28;20017;-64
2023/09/26 01:43:00;;;;;;;3.35;2.60;;;11.70;99.90;;;;;;5037576;28;20024;-64
2023/09/26 01:45:26;;;;;;;6.00;2.92;;;11.80;99.90;;;;;;5037217;28;20056;-64
2023/09/26 01:47:52;;;;;;;6.75;2.72;;;11.80;99.90;;;;;;5036834;28;20110;-64
2023/09/26 01:50:19;;;;;;;6.53;2.55;;;11.90;99.90;;;;;;5036986;28;20044;-64
2023/09/26 01:52:46;;;;;;;6.78;3.20;;;11.90;99.90;;;;;;5037026;28;20036;-64
2023/09/26 01:55:22;;;;;;;5.80;2.88;;;11.90;99.90;;;;;;5036663;28;20060;-64
2023/09/26 01:57:48;;;;;;;4.32;2.72;;;11.90;99.90;;;;;;5037508;28;20064;-64
2023/09/26 02:00:15;;;;;;;4.15;2.90;;;11.80;99.90;;;;;;5036775;28;20026;-64
2023/09/26 02:02:42;;;;;;;4.68;2.63;;;11.70;99.90;;;;;;5036926;28;20032;-64
2023/09/26 02:05:09;;;;;;;3.75;3.17;;;11.70;99.90;;;;;;5036900;28;20025;-64
2023/09/26 02:07:35;;;;;;;3.72;2.60;;;11.60;99.90;;;;;;5037259;28;20025;-64
2023/09/26 02:10:03;;;;;;;6.57;3.05;;;11.60;99.90;;;;;;5036740;28;20037;-64
2023/09/26 02:12:29;;;;;;;5.35;2.65;;;11.60;99.90;;;;;;5037098;28;20059;-64
2023/09/26 02:14:55;;;;;;;5.18;3.42;;;11.50;99.90;;;;;;5037246;28;20029;-64
2023/09/26 02:17:20;;;;;;;2.95;2.15;;;11.50;99.90;;;;;;5036554;28;20108;-64
2023/09/26 02:19:46;;;;;;;5.32;2.83;;;11.60;99.90;;;;;;5036626;28;20013;-64
2023/09/26 02:22:11;;;;;;;6.32;3.10;;;11.70;99.90;;;;;;5036526;28;20032;-64
2023/09/26 02:24:37;;;;;;;5.85;2.65;;;11.70;99.90;;;;;;5037279;28;20020;-64
2023/09/26 02:27:03;;;;;;;4.05;2.85;;;11.70;99.90;;;;;;5036083;28;20112;-64
2023/09/26 02:29:28;;;;;;;7.68;3.90;;;11.70;99.90;;;;;;5035310;28;20060;-64
2023/09/26 02:31:54;;;;;;;4.45;2.72;;;11.60;99.90;;;;;;5036448;28;20021;-64
2023/09/26 02:34:19;;;;;;;4.18;2.80;;;11.30;99.90;;;;;;5036055;28;20025;-64
2023/09/26 02:36:45;;;;;;;9.50;2.97;;;11.20;99.90;;;;;;5036478;28;20031;-64
2023/09/26 02:39:11;;;;;;;5.03;2.92;;;11.20;99.90;;;;;;5036119;28;20025;-64
2023/09/26 02:41:36;;;;;;;4.43;2.47;;;11.10;99.90;;;;;;5036067;28;20021;-64
2023/09/26 02:44:03;;;;;;;3.55;2.63;;;11.00;99.90;;;;;;5036040;28;20022;-64
2023/09/26 02:46:29;;;;;;;3.72;2.30;;;11.10;99.90;;;;;;5035951;28;20025;-64
2023/09/26 02:48:54;;;;;;;3.78;2.65;;;11.10;99.90;;;;;;5036980;28;20029;-64
2023/09/26 02:51:20;;;;;;;5.03;2.47;;;11.10;99.90;;;;;;5036176;28;20112;-64
2023/09/26 02:53:46;;;;;;;3.88;2.00;;;11.10;99.90;;;;;;5035993;28;20113;-64
2023/09/26 02:56:11;;;;;;;4.57;2.40;;;11.00;99.90;;;;;;5036258;28;20029;-64
2023/09/26 02:58:37;;;;;;;2.40;2.05;;;11.00;99.90;;;;;;5036165;28;20022;-64
2023/09/26 03:01:04;;;;;;;3.75;2.22;;;11.00;99.90;;;;;;5036204;28;20025;-64
2023/09/26 03:03:29;;;;;;;2.85;1.88;;;11.00;99.90;;;;;;5036280;28;20033;-64
2023/09/26 03:05:55;;;;;;;3.00;2.00;;;11.00;99.90;;;;;;5035778;28;20025;-64
2023/09/26 03:08:22;;;;;;;7.65;2.13;;;11.00;99.90;;;;;;5036144;28;20248;-64
2023/09/26 03:10:47;;;;;;;3.78;2.67;;;11.00;99.90;;;;;;5035987;28;20099;-64
2023/09/26 03:13:13;;;;;;;5.35;2.53;;;10.90;99.90;;;;;;5036261;28;20030;-64
2023/09/26 03:15:39;;;;;;;4.70;2.90;;;10.90;99.90;;;;;;5035723;28;20021;-64
2023/09/26 03:18:05;;;;;;;5.25;3.28;;;10.90;99.90;;;;;;5035627;28;20075;-64
2023/09/26 03:20:31;;;;;;;6.82;3.25;;;10.90;99.90;;;;;;5036654;28;20079;-64
2023/09/26 03:22:57;;;;;;;5.57;3.17;;;10.90;99.90;;;;;;5036263;28;20025;-64
2023/09/26 03:25:23;;;;;;;3.95;2.80;;;11.00;99.90;;;;;;5036406;28;20036;-64
2023/09/26 03:27:51;;;;;;;4.22;3.10;;;11.00;99.90;;;;;;5036281;28;20037;-64
2023/09/26 03:30:17;;;;;;;5.40;2.80;;;11.10;99.90;;;;;;5035458;28;20021;-64
2023/09/26 03:32:42;;;;;;;5.00;3.05;;;11.10;99.90;;;;;;5036435;28;20131;-64
2023/09/26 03:35:09;;;;;;;3.97;2.70;;;11.20;99.90;;;;;;5036705;28;20030;-64
2023/09/26 03:37:36;;;;;;;4.80;3.03;;;11.20;99.90;;;;;;5035560;28;20025;-64
2023/09/26 03:40:02;;;;;;;5.55;2.55;;;11.30;99.90;;;;;;5037412;28;20025;-64
2023/09/26 03:42:28;;;;;;;6.15;3.47;;;11.30;99.90;;;;;;5039982;28;20021;-64
2023/09/26 03:44:53;;;;;;;4.28;3.05;;;11.40;99.90;;;;;;5039740;28;20013;-64
2023/09/26 03:47:19;;;;;;;5.90;3.10;;;11.40;99.90;;;;;;5039294;28;20025;-64
2023/09/26 03:49:44;;;;;;;4.63;2.95;;;11.40;99.90;;;;;;5038967;28;20033;-64
2023/09/26 03:52:10;;;;;;;4.68;2.65;;;11.40;99.90;;;;;;5039271;28;20063;-63
2023/09/26 03:54:37;;;;;;;4.05;2.70;;;11.20;99.90;;;;;;5039949;28;20048;-64
2023/09/26 03:57:04;;;;;;;4.13;2.35;;;11.10;99.90;;;;;;5039320;28;20108;-64
2023/09/26 03:59:30;;;;;;;5.07;3.17;;;11.10;99.90;;;;;;5039182;28;20021;-65
2023/09/26 04:01:55;;;;;;;6.63;3.40;;;11.10;99.90;;;;;;5038734;28;20043;-64
2023/09/26 04:04:21;;;;;;;4.50;3.40;;;11.00;99.90;;;;;;5039660;28;20029;-64
2023/09/26 04:06:46;;;;;;;4.85;3.20;;;11.00;99.90;;;;;;5039033;28;20104;-64
2023/09/26 04:09:12;;;;;;;5.53;2.88;;;11.20;99.90;;;;;;5039847;28;20080;-64
2023/09/26 04:11:37;;;;;;;5.35;2.90;;;11.30;99.90;;;;;;5038479;28;20040;-64
2023/09/26 04:14:03;;;;;;;4.45;3.30;;;11.30;99.90;;;;;;5038693;28;20022;-64
2023/09/26 04:16:29;;;;;;;5.18;3.17;;;11.20;99.90;;;;;;5039666;28;20025;-64
2023/09/26 04:18:54;;;;;;;6.03;3.38;;;11.20;99.90;;;;;;5038711;28;20018;-64
2023/09/26 04:21:20;;;;;;;3.95;2.97;;;11.20;99.90;;;;;;5038481;28;20091;-64
2023/09/26 04:23:45;;;;;;;6.40;3.47;;;11.20;99.90;;;;;;5039320;28;20025;-64
2023/09/26 04:26:15;;;;;;;4.60;2.60;;;11.30;99.90;;;;;;5038459;28;20071;-64
2023/09/26 04:28:42;;;;;;;3.88;3.10;;;11.20;99.90;;;;;;5038287;28;20113;-64
2023/09/26 04:31:17;;;;;;;8.05;2.95;;;11.20;99.90;;;;;;5038269;28;20029;-64
2023/09/26 04:33:44;;;;;;;4.60;3.28;;;11.30;99.90;;;;;;5038631;28;20120;-64
2023/09/26 04:36:10;;;;;;;3.80;3.08;;;11.40;99.90;;;;;;5038249;28;20026;-64
2023/09/26 04:38:36;;;;;;;4.05;3.05;;;11.50;99.90;;;;;;5038747;28;20026;-64
2023/09/26 04:41:02;;;;;;;6.10;2.80;;;11.40;99.90;;;;;;5038815;28;20025;-64
2023/09/26 04:43:29;;;;;;;10.35;3.30;;;11.30;99.90;;;;;;5038537;28;20026;-64
2023/09/26 04:45:55;;;;;;;3.28;2.22;;;11.30;99.90;;;;;;5037981;28;20028;-64
2023/09/26 04:48:20;;;;;;;4.50;2.78;;;11.30;99.90;;;;;;5038359;28;20025;-64
2023/09/26 04:50:46;;;;;;;7.78;3.25;;;11.30;99.90;;;;;;5037849;28;20059;-64
2023/09/26 04:53:12;;;;;;;6.45;3.17;;;11.20;99.90;;;;;;5037936;28;20158;-64
2023/09/26 04:55:37;;;;;;;4.47;2.80;;;11.00;99.90;;;;;;5038295;28;20060;-64
2023/09/26 04:58:04;;;;;;;6.57;2.88;;;10.90;99.90;;;;;;5038157;28;20032;-64
2023/09/26 05:00:30;;;;;;;6.55;3.55;;;10.90;99.90;;;;;;5038045;28;20108;-64
2023/09/26 05:02:55;;;;;;;7.57;3.13;;;10.80;99.90;;;;;;5038507;28;20060;-64
2023/09/26 05:05:21;;;;;;;3.53;2.78;;;10.70;99.90;;;;;;5037925;28;20014;-64
2023/09/26 05:07:48;;;;;;;4.15;2.67;;;10.70;99.90;;;;;;5037546;28;20048;-64
2023/09/26 05:10:14;;;;;;;3.95;2.67;;;10.70;99.90;;;;;;5038189;28;20049;-64
2023/09/26 05:12:40;;;;;;;3.92;2.88;;;10.80;99.90;;;;;;5038349;28;20033;-64
2023/09/26 05:15:15;;;;;;;5.35;2.78;;;10.80;99.90;;;;;;5037546;28;20121;-64
2023/09/26 05:17:53;;;;;;;5.93;3.40;;;10.80;99.90;;;;;;5038176;28;20049;-64
2023/09/26 05:20:19;;;;;;;6.45;2.85;;;10.80;99.90;;;;;;5037823;28;20029;-64
2023/09/26 05:22:47;;;;;;;9.50;2.95;;;11.00;99.90;;;;;;5037331;28;20029;-63
2023/09/26 05:25:13;;;;;;;3.47;2.92;;;11.00;99.90;;;;;;5037610;28;20029;-64
2023/09/26 05:27:40;;;;;;;6.82;3.13;;;11.00;99.90;;;;;;5038078;28;20103;-64
2023/09/26 05:30:06;;;;;;;7.88;3.47;;;11.00;99.90;;;;;;5037950;28;20053;-64
2023/09/26 05:32:32;;;;;;;4.88;3.00;;;10.90;99.90;;;;;;5037658;28;20036;-64
2023/09/26 05:34:58;;;;;;;4.22;2.95;;;10.90;99.90;;;;;;5037361;28;20017;-64
2023/09/26 05:37:23;;;;;;;4.32;2.58;;;10.90;99.90;;;;;;5037300;28;20029;-64
2023/09/26 05:39:49;;;;;;;6.20;3.10;;;10.80;99.90;;;;;;5036993;28;20030;-64
2023/09/26 05:42:15;;;;;;;5.68;3.10;;;10.90;99.90;;;;;;5037460;28;20056;-64
2023/09/26 05:44:40;;;;;;;3.55;2.97;;;10.90;99.90;;;;;;5037206;28;20017;-64
2023/09/26 05:47:06;;;;;;;4.40;3.08;;;10.90;99.90;;;;;;5037145;28;20074;-64
2023/09/26 05:49:32;;;;;;;6.03;3.10;;;10.90;99.90;;;;;;5037725;28;20036;-64
2023/09/26 05:51:57;;;;;;;5.05;2.92;;;10.90;99.90;;;;;;5037038;28;20025;-64
2023/09/26 05:54:23;;;;;;;7.55;3.83;;;11.00;99.90;;;;;;5037099;28;20028;-64
2023/09/26 05:56:48;;;;;;;10.38;3.70;;;11.00;99.90;;;;;;5037146;28;20021;-64
2023/09/26 05:59:14;;;;;;;4.07;3.03;;;10.90;99.90;;;;;;5036893;28;20025;-64
2023/09/26 06:01:40;;;;;;;5.28;3.38;;;11.00;99.90;;;;;;5037037;28;20028;-64
2023/09/26 06:04:05;;;;;;;5.63;3.28;;;11.00;99.90;;;;;;5036269;28;20026;-64
2023/09/26 06:06:33;;;;;;;10.25;3.53;;;11.10;99.90;;;;;;5036833;28;20035;-64
2023/09/26 06:08:59;;;;;;;5.18;3.15;;;11.10;99.90;;;;;;5037274;28;20048;-64
2023/09/26 06:11:24;;;;;;;5.88;3.60;;;11.20;99.90;;;;;;5036633;28;20092;-64
2023/09/26 06:13:52;;;;;;;7.47;4.20;;;11.10;99.90;;;;;;5036918;28;20025;-64
2023/09/26 06:16:18;;;;;;;8.57;4.43;;;10.90;99.90;;;;;;5036449;28;20056;-64
2023/09/26 06:18:44;;;;;;;11.82;3.90;;;10.80;99.90;;;;;;5037011;28;20026;-64
2023/09/26 06:21:10;;;;;;;4.00;3.03;;;10.80;99.90;;;;;;5036249;28;20071;-64
2023/09/26 06:23:36;;;;;;;4.55;3.70;;;10.90;99.90;;;;;;5037071;28;20078;-64
2023/09/26 06:26:02;;;;;;;5.82;3.75;;;10.90;99.90;;;;;;5037324;28;20017;-64
2023/09/26 06:28:28;;;;;;;3.88;3.35;;;11.10;99.90;;;;;;5036172;28;20021;-64
2023/09/26 06:30:54;;;;;;;6.63;3.10;;;11.20;99.90;;;;;;5036238;28;20029;-64
2023/09/26 06:33:20;;;;;;;6.78;3.15;;;11.30;99.90;;;;;;5037082;28;20079;-64
2023/09/26 06:35:45;;;;;;;4.43;3.00;;;11.30;99.90;;;;;;5036421;28;20052;-64
2023/09/26 06:38:11;;;;;;;5.50;2.97;;;11.40;99.90;;;;;;5036124;28;20114;-64
2023/09/26 06:40:37;;;;;;;3.35;2.65;;;11.40;99.90;;;;;;5035921;28;20071;-64
2023/09/26 06:43:03;;;;;;;6.47;3.10;;;11.50;99.90;;;;;;5036376;28;20021;-64
2023/09/26 06:45:29;;;;;;;6.65;3.22;;;11.60;99.90;;;;;;5036317;28;20021;-64
2023/09/26 06:47:55;;;;;;;4.47;3.50;;;11.60;99.90;;;;;;5036211;28;20029;-64
2023/09/26 06:50:21;;;;;;;4.38;3.40;;;11.60;99.90;;;;;;5036435;28;20022;-64
2023/09/26 06:52:47;;;;;;;4.22;2.88;;;11.60;99.90;;;;;;5036796;28;20033;-64
2023/09/26 06:55:13;;;;;;;4.88;2.90;;;11.70;99.90;;;;;;5035923;28;20088;-64
2023/09/26 06:57:39;;;;;;;4.65;2.97;;;11.80;99.90;;;;;;5036276;28;20029;-64
2023/09/26 07:00:06;;;;;;;7.35;3.13;;;11.70;99.90;;;;;;5036157;28;20056;-64
2023/09/26 07:02:32;;;;;;;5.18;3.30;;;11.80;99.90;;;;;;5036489;28;20076;-64
2023/09/26 07:04:57;;;;;;;4.47;3.10;;;11.70;99.90;;;;;;5036268;28;20026;-64
2023/09/26 07:07:23;;;;;;;4.60;3.33;;;11.80;99.90;;;;;;5035834;28;20018;-64
2023/09/26 07:09:49;;;;;;;6.47;3.50;;;11.70;99.90;;;;;;5036647;28;20018;-64
2023/09/26 07:12:17;;;;;;;3.83;3.03;;;11.70;99.90;;;;;;5035600;28;20030;-64
2023/09/26 07:14:43;;;;;;;3.22;2.85;;;11.80;99.90;;;;;;5037361;28;20018;-64
2023/09/26 07:17:11;;;;;;;2.90;2.50;;;12.00;99.90;;;;;;5040037;28;20080;-64
2023/09/26 07:19:37;;;;;;;5.15;3.20;;;12.20;99.90;;;;;;5039639;28;20048;-64
2023/09/26 07:22:02;;;;;;;2.92;2.67;;;12.40;99.90;;;;;;5039877;28;20088;-64
2023/09/26 07:24:28;;;;;;;6.68;3.03;;;12.40;99.90;;;;;;5040118;28;20052;-64
2023/09/26 07:26:53;;;;;;;6.45;3.05;;;12.50;99.90;;;;;;5039743;28;20029;-64
2023/09/26 07:29:19;;;;;;;5.60;3.45;;;12.60;99.90;;;;;;5039556;28;20028;-64
2023/09/26 07:31:45;;;;;;;6.45;2.80;;;12.60;99.90;;;;;;5039728;28;20030;-64
2023/09/26 07:34:11;;;;;;;8.70;2.97;;;12.70;99.90;;;;;;5040223;28;20033;-64
2023/09/26 07:36:37;;;;;;;4.53;2.95;;;12.80;99.90;;;;;;5039643;28;20022;-64
2023/09/26 07:39:03;;;;;;;5.13;2.47;;;12.90;99.90;;;;;;5039154;28;20042;-64
2023/09/26 07:41:29;;;;;;;2.75;2.50;;;13.00;99.90;;;;;;5040037;28;20032;-64
2023/09/26 07:43:55;;;;;;;6.57;3.03;;;13.00;99.90;;;;;;5039339;28;20018;-64
2023/09/26 07:46:21;;;;;;;4.18;3.00;;;13.10;99.90;;;;;;5039911;28;20075;-64
2023/09/26 07:48:47;;;;;;;4.40;3.03;;;13.20;99.90;;;;;;5039290;28;20021;-64
2023/09/26 07:51:13;;;;;;;5.18;2.90;;;13.30;99.90;;;;;;5039301;28;20033;-64
2023/09/26 07:53:38;;;;;;;8.27;3.03;;;13.30;99.90;;;;;;5039156;28;20026;-64
2023/09/26 07:56:04;;;;;;;4.53;2.85;;;13.40;99.90;;;;;;5039403;28;20025;-64
2023/09/26 07:58:29;;;;;;;5.32;3.13;;;13.40;99.90;;;;;;5039721;28;20027;-64
2023/09/26 08:00:58;;;;;;;4.28;3.17;;;13.50;99.90;;;;;;5039397;28;20048;-64
2023/09/26 08:03:24;;;;;;;6.10;3.28;;;13.60;99.90;;;;;;5039558;28;20045;-64
2023/09/26 08:05:50;;;;;;;5.63;4.10;;;13.70;99.90;;;;;;5039142;28;20049;-64
2023/09/26 08:08:16;;;;;;;5.45;3.45;;;13.80;99.90;;;;;;5039783;28;20025;-64
2023/09/26 08:10:41;;;;;;;5.97;4.13;;;13.80;99.90;;;;;;5038801;28;20037;-64
2023/09/26 08:13:07;;;;;;;7.50;3.92;;;13.90;99.90;;;;;;5038793;28;20033;-64
2023/09/26 08:15:34;;;;;;;10.85;4.20;;;14.00;99.90;;;;;;5038875;28;20040;-64
2023/09/26 08:18:01;;;;;;;11.15;4.72;;;14.10;99.90;;;;;;5038803;28;20116;-64
2023/09/26 08:20:27;;;;;;;9.82;4.82;;;14.20;99.90;;;;;;5038805;28;20103;-64
2023/09/26 08:22:52;;;;;;;7.30;4.75;;;14.40;99.90;;;;;;5038400;28;20084;-64
2023/09/26 08:25:18;;;;;;;7.07;4.40;;;14.40;99.90;;;;;;5038650;28;20045;-64
2023/09/26 08:27:44;;;;;;;7.93;4.53;;;14.50;99.90;;;;;;5039416;28;20022;-64
2023/09/26 08:30:13;;;;;;;8.30;4.20;;;14.60;99.90;;;;;;5038349;28;20023;-65
2023/09/26 08:32:42;;;;;;;6.13;4.25;;;14.60;99.90;;;;;;5039040;28;20026;-64
2023/09/26 08:35:09;;;;;;;8.73;5.38;;;14.70;99.90;;;;;;5038304;28;20028;-65
2023/09/26 08:37:36;;;;;;;7.95;4.60;;;14.80;99.90;;;;;;5038133;28;20025;-64
2023/09/26 08:40:04;;;;;;;7.22;3.97;;;14.90;99.90;;;;;;5038527;28;20022;-64
2023/09/26 08:42:31;;;;;;;7.88;3.88;;;14.90;99.90;;;;;;5038976;28;20104;-64
2023/09/26 08:44:58;;;;;;;8.23;4.25;;;15.00;99.90;;;;;;5038314;28;20044;-64
2023/09/26 08:47:24;;;;;;;7.13;4.75;;;15.10;99.90;;;;;;5038497;28;20022;-64
2023/09/26 08:49:54;;;;;;;4.45;3.53;;;15.20;99.90;;;;;;5037656;28;20052;-65
2023/09/26 08:52:23;;;;;;;6.65;3.70;;;15.30;99.90;;;;;;5038470;28;20031;-64
2023/09/26 08:54:49;;;;;;;7.45;3.60;;;15.40;99.90;;;;;;5038827;28;20025;-64
2023/09/26 08:57:18;;;;;;;5.25;3.40;;;15.50;99.90;;;;;;5037912;28;20026;-64
2023/09/26 08:59:48;;;;;;;4.00;2.88;;;15.60;99.90;;;;;;5038093;28;20025;-65
2023/09/26 09:02:14;;;;;;;3.20;2.55;;;15.70;99.90;;;;;;5037806;28;20045;-64
2023/09/26 09:04:44;;;;;;;4.53;2.75;;;16.00;99.90;;;;;;5037757;28;20064;-64
2023/09/26 09:07:11;;;;;;;11.65;3.30;;;16.20;99.90;;;;;;5037713;28;20026;-65
2023/09/26 09:09:57;;;;;;;5.88;3.20;;;16.20;99.90;;;;;;5038397;28;20076;-65
2023/09/26 09:12:23;;;;;;;5.15;2.30;;;16.20;99.90;;;;;;5037753;28;20033;-64
2023/09/26 09:14:49;;;;;;;5.90;2.88;;;16.40;99.90;;;;;;5037917;28;20089;-64
2023/09/26 09:17:14;;;;;;;5.60;2.47;;;16.50;99.90;;;;;;5038460;28;20029;-65
2023/09/26 09:19:47;;;;;;;6.47;2.78;;;16.60;99.90;;;;;;5037913;28;20032;-65
2023/09/26 09:22:18;;;;;;;4.97;2.55;;;16.80;99.90;;;;;;5038130;28;20085;-64
2023/09/26 09:24:51;;;;;;;4.45;2.15;;;16.90;99.90;;;;;;5038162;28;20025;-64
2023/09/26 09:27:27;;;;;;;3.78;2.72;;;17.10;99.90;;;;;;5038011;28;20048;-65
2023/09/26 09:30:07;;;;;;;2.50;2.30;;;17.20;99.90;;;;;;5037151;28;20029;-64
2023/09/26 09:32:34;;;;;;;4.75;2.60;;;17.40;99.90;;;;;;5037941;28;20068;-64
2023/09/26 09:34:59;;;;;;;4.03;2.33;;;17.40;99.90;;;;;;5038021;28;20047;-64
2023/09/26 09:37:25;;;;;;;4.32;2.40;;;17.40;99.90;;;;;;5036642;28;20021;-64
2023/09/26 09:39:51;;;;;;;6.40;2.40;;;17.50;99.90;;;;;;5037707;28;20026;-64
2023/09/26 09:42:17;;;;;;;5.00;2.05;;;17.50;99.90;;;;;;5037001;28;20071;-64
2023/09/26 09:44:42;;;;;;;4.63;2.45;;;17.60;99.90;;;;;;5037852;28;20025;-65
2023/09/26 09:47:11;;;;;;;2.90;2.15;;;17.60;99.90;;;;;;5036917;28;20032;-64
2023/09/26 09:49:41;;;;;;;5.97;2.83;;;17.80;99.90;;;;;;5037154;28;20048;-65
2023/09/26 09:52:09;;;;;;;4.28;2.38;;;18.00;99.90;;;;;;5037099;28;20022;-64
2023/09/26 09:54:42;;;;;;;2.45;1.98;;;18.10;99.90;;;;;;5036771;28;20086;-65
2023/09/26 09:57:10;;;;;;;2.55;2.00;;;18.20;99.90;;;;;;5036836;28;20021;-64
2023/09/26 09:59:39;;;;;;;3.22;1.73;;;18.40;99.90;;;;;;5036707;28;20029;-65
2023/09/26 10:02:05;;;;;;;3.70;2.00;;;18.70;99.90;;;;;;5036787;28;20112;-64
2023/09/26 10:04:34;;;;;;;5.63;2.20;;;18.70;99.90;;;;;;5037545;28;20029;-64
2023/09/26 10:07:00;;;;;;;2.90;2.15;;;18.80;99.90;;;;;;5037504;28;20018;-65
2023/09/26 10:09:27;;;;;;;5.38;2.33;;;18.90;99.90;;;;;;5037310;28;20036;-64
2023/09/26 10:11:54;;;;;;;6.90;2.13;;;19.10;99.90;;;;;;5036163;28;20037;-64
2023/09/26 10:14:24;;;;;;;5.78;2.25;;;19.20;99.90;;;;;;5037196;28;20025;-64
2023/09/26 10:16:50;;;;;;;4.30;2.40;;;19.40;99.90;;;;;;5036785;28;20029;-64
2023/09/26 10:19:21;;;;;;;4.10;1.98;;;19.50;99.90;;;;;;5036263;28;20049;-64
2023/09/26 10:21:47;;;;;;;2.00;1.80;;;19.80;99.90;;;;;;5036575;28;20037;-65
2023/09/26 10:24:12;;;;;;;3.63;2.45;;;20.00;99.90;;;;;;5037388;28;20044;-65
2023/09/26 10:26:48;;;;;;;3.03;2.08;;;20.20;99.90;;;;;;5036223;28;20025;-65
2023/09/26 10:29:19;;;;;;;4.15;1.88;;;20.30;99.90;;;;;;5036653;28;20052;-64
2023/09/26 10:31:57;;;;;;;4.00;2.00;;;20.40;99.90;;;;;;5036966;28;20076;-64
2023/09/26 10:34:32;;;;;;;4.15;2.10;;;20.60;99.90;;;;;;5037155;28;20026;-64
2023/09/26 10:36:59;;;;;;;6.68;2.28;;;20.90;99.90;;;;;;5036585;28;20030;-65
2023/09/26 10:39:40;;;;;;;2.20;1.83;;;20.90;99.90;;;;;;5036114;28;20117;-65
2023/09/26 10:42:14;;;;;;;2.65;1.80;;;21.00;99.90;;;;;;5036141;28;20029;-65
2023/09/26 10:44:42;;;;;;;4.47;1.70;;;21.10;99.90;;;;;;5037158;28;20052;-65
2023/09/26 10:47:08;;;;;;;2.50;2.00;;;21.30;99.90;;;;;;5037107;28;20083;-65
2023/09/26 10:49:34;;;;;;;4.75;1.98;;;21.50;99.90;;;;;;5037273;28;20108;-64
2023/09/26 10:52:03;;;;;;;6.18;2.20;;;21.50;99.90;;;;;;5041090;28;20025;-65
2023/09/26 10:54:30;;;;;;;6.28;1.85;;;21.70;99.90;;;;;;5040406;28;20026;-64
2023/09/26 10:56:58;;;;;;;3.08;1.95;;;21.90;99.90;;;;;;5041058;28;20021;-64
2023/09/26 10:59:28;;;;;;;6.35;2.10;;;22.20;99.90;;;;;;5040170;28;20079;-65
2023/09/26 11:01:58;;;;;;;1.92;1.70;;;22.30;99.90;;;;;;5040252;28;20028;-65
2023/09/26 11:04:28;;;;;;;2.35;2.10;;;22.80;99.90;;;;;;5040840;28;20032;-71
2023/09/26 11:07:02;;;;;;;3.67;2.50;;;23.90;99.90;;;;;;5040388;28;20095;-71
2023/09/26 11:09:28;;;;;;;2.63;2.30;;;24.80;99.90;;;;;;5040880;28;20124;-71
2023/09/26 11:11:56;;;;;;;3.53;2.45;;;25.30;99.90;;;;;;5040414;28;20083;-71
2023/09/26 11:14:22;;;;;;;5.40;2.78;;;25.20;99.90;;;;;;5041211;28;20113;-71
2023/09/26 11:16:49;;;;;;;4.07;2.53;;;24.60;99.90;;;;;;5040636;28;20021;-71
2023/09/26 11:19:14;;;;;;;3.97;3.00;;;24.30;99.90;;;;;;5040503;28;20018;-70
2023/09/26 11:21:40;;;;;;;3.20;2.63;;;24.30;99.90;;;;;;5039583;28;20018;-71
2023/09/26 11:24:23;;;;;;;3.03;2.30;;;24.70;99.90;;;;;;5040491;28;20104;-71
2023/09/26 11:26:51;;;;;;;2.88;2.65;;;25.30;99.90;;;;;;5040849;28;20022;-71
2023/09/26 11:29:18;;;;;;;3.03;2.42;;;26.30;99.90;;;;;;5039718;28;20089;-71
2023/09/26 11:31:45;;;;;;;9.48;2.50;;;25.80;99.90;;;;;;5040458;28;20060;-71
2023/09/26 11:34:11;;;;;;;4.97;2.58;;;25.90;99.90;;;;;;5039309;28;20030;-71
2023/09/26 11:36:41;;;;;;;4.07;2.80;;;25.40;99.90;;;;;;5039762;28;20052;-71
2023/09/26 11:39:10;;;;;;;4.20;2.10;;;25.50;99.90;;;;;;5039290;28;20036;-71
2023/09/26 11:41:35;;;;;;;3.08;2.40;;;25.60;99.90;;;;;;5040113;28;20014;-71
2023/09/26 11:44:11;;;;;;;3.70;1.90;;;25.30;99.90;;;;;;5039191;28;20156;-71
2023/09/26 11:46:44;;;;;;;3.85;2.60;;;26.00;99.90;;;;;;5040323;28;20061;-71
2023/09/26 11:49:11;;;;;;;4.80;2.63;;;26.50;99.90;;;;;;5040897;28;20017;-71
2023/09/26 11:51:37;;;;;;;5.15;2.20;;;26.90;99.90;;;;;;5039915;28;20032;-71
2023/09/26 11:54:03;;;;;;;3.45;2.17;;;27.00;99.90;;;;;;5039098;28;20033;-71
2023/09/26 11:56:28;;;;;;;5.13;2.08;;;26.80;99.90;;;;;;5038977;28;20025;-71
2023/09/26 11:58:54;;;;;;;4.82;2.47;;;27.10;99.90;;;;;;5039229;28;20029;-71
2023/09/26 12:01:20;;;;;;;2.08;1.70;;;26.70;99.90;;;;;;5039333;28;20026;-71
2023/09/26 12:03:46;;;;;;;1.73;1.52;;;26.00;99.90;;;;;;5039671;28;20076;-71
2023/09/26 12:06:12;;;;;;;5.65;2.15;;;27.00;99.90;;;;;;5039184;28;20025;-71
2023/09/26 12:08:38;;;;;;;2.55;1.77;;;27.30;99.90;;;;;;5038792;28;20096;-71
2023/09/26 12:11:04;;;;;;;3.28;1.45;;;27.80;99.90;;;;;;5039112;28;20033;-71
2023/09/26 12:13:29;;;;;;;4.78;1.70;;;27.30;99.90;;;;;;5039574;28;20025;-71
2023/09/26 12:15:57;;;;;;;2.20;1.80;;;28.50;99.90;;;;;;5038748;28;20052;-71
2023/09/26 12:18:22;;;;;;;2.25;1.70;;;29.00;99.90;;;;;;5038817;28;20022;-71
2023/09/26 12:20:53;;;;;;;1.88;1.45;;;29.60;99.90;;;;;;5038828;28;20025;-71
2023/09/26 12:23:21;;;;;;;3.13;1.63;;;30.10;99.90;;;;;;5039414;28;20033;-71
2023/09/26 12:25:47;;;;;;;3.38;1.55;;;29.10;99.90;;;;;;5038302;28;20026;-71
2023/09/26 12:28:13;;;;;;;5.15;2.35;;;28.50;99.90;;;;;;5038770;28;20037;-71
2023/09/26 12:30:38;;;;;;;2.38;1.63;;;28.10;99.90;;;;;;5038697;28;20068;-71
2023/09/26 12:33:04;;;;;;;4.07;1.60;;;29.30;99.90;;;;;;5038699;28;20036;-71
2023/09/26 12:35:29;;;;;;;1.90;1.70;;;29.90;99.20;;;;;;5038209;28;20021;-71
2023/09/26 12:37:56;;;;;;;3.08;1.52;;;29.90;98.60;;;;;;5038503;28;20067;-71
2023/09/26 12:40:22;;;;;;;7.28;1.85;;;29.80;98.90;;;;;;5039061;28;20030;-71
2023/09/26 12:42:48;;;;;;;2.95;1.73;;;29.10;99.20;;;;;;5038970;28;20025;-71
2023/09/26 12:45:14;;;;;;;4.63;1.25;;;29.90;97.70;;;;;;5038196;28;20024;-71